World of Logs combat log analyzer allows gamers to save, share and analyze their raiding experiences conveniently and thoroughly in the Blizzard MMO World of Warcraft. If you're new here, make sure you check out the tour for a 1 minute introduction. If you have any questions, we're happy to answer them on the forums.

DPS HPS
Odyn
Helya
Guarm
Reports for Twilight Ascendant Council - statistics
# Date Time Damage DPS Guild Realm
601 06 Feb 2012 02:12 24.60M 185955.3 Immortal US-Lightbringer
602 13 Apr 2012 02:12 24.44M 184726.4 Блошкин лог EU-Вечная Песня
603 19 Aug 2011 02:12 23.79M 179751.0 Askeria EU-Sen'jin
604 06 Nov 2011 02:12 24.39M 184265.7 Echoes EU-Garona
605 12 Jul 2012 02:12 24.56M 185532.9 Abraxas US-Dath'Remar
606 13 Apr 2012 02:12 24.45M 184650.4 Twister EU-Вечная Песня
607 14 Aug 2012 02:12 24.96M 188433.0 Overdosed US-Stormreaver
608 22 May 2012 02:12 24.63M 185858.3 horo EU-Свежеватель Душ
609 10 Jul 2012 02:12 24.36M 183766.6 Pug Ettel EU-Drak'thul
610 01 Aug 2012 02:12 23.86M 180021.4 Imperial Scourge US-Mug'thol
611 05 Mar 2012 02:12 24.12M 181947.5 DNA US-Thrall
612 11 Jun 2012 02:12 24.44M 184316.5 deVon EU-Blackrock
613 28 Jun 2012 02:12 24.24M 182710.0 Inixia US-Barthilas
614 26 Aug 2012 02:12 24.26M 182701.3 Jellog's Logs US-Bleeding Hollow
615 21 Mar 2012 02:12 24.01M 180794.8 Андэграунд EU-Свежеватель Душ
616 05 Apr 2012 02:12 24.33M 183171.3 Ten Mans Dont Count US-Earthen Ring
617 27 Jun 2012 02:12 24.63M 185382.5 Akai Soubi US-Uther
618 28 May 2012 02:12 24.12M 181518.5 echoes EU-Blackrock
619 10 Oct 2011 02:12 24.61M 185195.7 Raiders of Apocalypse EU-Chromaggus
620 21 Mar 2012 02:12 24.01M 180645.1 Андэграунд EU-Свежеватель Душ
621 19 Aug 2012 02:12 24.45M 183942.0 Merry Graverobbers EU-Stormreaver
622 23 Nov 2011 02:13 24.71M 185723.3 Superbia EU-Kazzak
623 27 Aug 2012 02:13 24.91M 187138.7 Logi SP EU-Черный Шрам
624 12 Oct 2011 02:13 24.54M 184355.7 The Brethren US-Khadgar
625 15 Mar 2012 02:13 24.80M 186225.5 Сюрреал EU-Термоштепсель
626 17 Aug 2012 02:13 25.16M 188924.7 Go Pawkets or Go Home US-Hyjal
627 16 Jul 2012 02:13 24.85M 186583.9 Mischief US-Emerald Dream
628 12 Jul 2012 02:13 24.57M 184316.7 RTD's Logs US-Skullcrusher
629 17 Aug 2012 02:13 24.34M 182605.3 Blutrausch EU-Onyxia
630 14 Apr 2012 02:13 24.14M 181065.2 Undefined US-Kil'jaeden
631 24 Mar 2012 02:13 24.70M 185202.3 Oblivion US-Tichondrius
632 19 Mar 2012 02:13 24.11M 180738.2 BrokenNew EU-Blackhand
633 07 Feb 2012 02:13 24.02M 179970.4 Penguins And Polar Bears 2.0 US-Caelestrasz
634 07 Mar 2012 02:13 24.69M 184924.2 Team Cobra EU-Darkmoon Faire
635 09 May 2012 02:13 24.44M 182998.3 Haven US-Lethon
636 02 Aug 2012 02:13 24.10M 180448.1 Divide US-Zul'jin
637 01 Jul 2012 02:13 24.43M 182900.0 Tlupa EU-Thunderhorn
638 04 May 2012 02:13 24.33M 182122.7 SkayForm EU-Ревущий фьорд
639 29 Mar 2012 02:13 24.58M 183962.9 Away US-Stormreaver
640 04 May 2012 02:13 24.14M 180639.4 Rainbow Avengers US-Stormrage
641 18 Apr 2012 02:13 24.05M 179891.5 Беллум EU-Ревущий фьорд
642 05 Aug 2012 02:13 24.14M 180597.4 THE CLIQUE funlogs EU-Kazzak
643 23 Apr 2012 02:13 24.31M 181805.4 Ласт Пул EU-Свежеватель Душ
644 08 Jul 2012 02:13 24.29M 181645.3 Redlexus US-Arygos
645 08 Jan 2012 02:13 24.19M 180900.1 Tervaleijona EU-Burning Steppes
646 13 Aug 2012 02:13 24.57M 183706.9 JUNGO EU-Alexstrasza
647 08 Aug 2012 02:13 24.89M 186077.1 Бич с ЧШ EU-Король-лич
648 22 Aug 2012 02:13 24.74M 184923.4 Busido EU-Ревущий фьорд
649 19 Aug 2012 02:13 24.37M 182183.4 Shenis EU-Азурегос
650 18 Apr 2012 02:13 24.44M 182696.6 Returned US-Wildhammer
651 08 Aug 2012 02:13 24.49M 183000.7 SkerLogs US-Illidan
652 14 Jun 2012 02:13 24.68M 184378.1 Orden EU-Азурегос
653 13 Aug 2012 02:13 24.26M 181180.9 Giggity US-Area 52
654 02 Feb 2012 02:13 24.99M 186607.0 HAZEL EU-Outland
655 07 Jun 2012 02:13 24.74M 184723.4 Evil Deeds Inc US-Area 52
656 07 Mar 2012 02:13 24.97M 186383.1 ensemble EU-Eredar
657 04 Feb 2012 02:14 24.75M 184643.4 Странник EU-Гром
658 29 Apr 2012 02:14 24.35M 181604.9 LdH_DH10 EU-Blackhand
659 20 Aug 2012 02:14 24.60M 183412.5 Spite And Malice US-Hellscream
660 28 Jul 2012 02:14 24.26M 180931.2 Climbin in yo windows and stealin ya rankins US-Zul'jin
661 20 Aug 2012 02:14 24.60M 183333.2 The Tyraél's Charger Friends Club Feat. Jiffy US-Hellscream
662 29 Apr 2012 02:14 24.82M 184965.8 Immota Fides EU-Forscherliga
663 09 Nov 2011 02:14 24.55M 182989.7 The Feral Aggressors US-Bronzebeard
664 30 May 2012 02:14 24.31M 181141.0 Сов EU-Гордунни
665 01 Aug 2012 02:14 24.41M 181856.3 Lipigrall EU-Proudmoore
666 20 Aug 2012 02:14 25.05M 186641.1 temp EU-Ревущий фьорд
667 15 Jan 2012 02:14 24.32M 181149.0 Blessed EU-Aegwynn
668 23 Nov 2011 02:14 24.47M 182265.9 Trip's Dumpsite EU-Kul Tiras
669 20 Mar 2012 02:14 24.19M 180077.0 Mythical Honour EU-Arathor
670 19 Aug 2012 02:14 24.20M 180192.4 Эльва тащит EU-Подземье
671 28 Dec 2011 02:14 24.36M 181291.8 Chainsaw Launcher US-Illidan
672 15 Jul 2012 02:14 23.84M 177426.6 Electric Sheep US-Kargath
673 18 Jul 2012 02:14 24.99M 185925.8 Tlupa EU-Thunderhorn
674 05 Apr 2012 02:14 24.96M 185707.0 Unpossible US-Area 52
675 05 Jul 2012 02:14 24.44M 181812.0 Pug Logs EU-Al'Akir
676 17 Jul 2012 02:14 23.71M 176349.6 Paradox US-Nordrassil
677 10 Apr 2012 02:14 24.34M 180969.7 Тента Макур EU-Гордунни
678 28 May 2012 02:14 23.85M 177383.8 Sacred Vow US-Sargeras
679 17 Jun 2012 02:14 24.19M 179795.9 Electric Sheep US-Kargath
680 10 Mar 2012 02:14 24.44M 181654.6 Junnospot US-Illidan
681 10 Mar 2012 02:14 24.44M 181654.6 Junnospot US-Illidan
682 18 Aug 2012 02:14 24.37M 181164.7 E X A L T E D US-Aman'Thul
683 05 Aug 2012 02:14 24.40M 181334.0 Innocénce EU-Thrall
684 25 Apr 2012 02:14 24.20M 179840.9 Pie Chart US-Bleeding Hollow
685 14 May 2012 02:14 24.21M 179906.3 Swims in Lava US-Blackrock
686 01 Jul 2012 02:14 24.31M 180607.0 Blessed EU-Aegwynn
687 20 Jul 2012 02:14 24.76M 183916.3 Avatar US-Suramar
688 10 Jul 2012 02:14 25.04M 186001.6 Huhu EU-Blackrock
689 22 Aug 2012 02:14 24.77M 183973.5 Abyss US-Skullcrusher
690 03 Jul 2012 02:14 23.79M 176646.5 Moronic Impression EU-Frostwhisper
691 26 Dec 2010 02:14 24.29M 180293.5 Dirty Heroes EU-Vashj
692 07 Apr 2012 02:14 24.63M 182800.5 Kolotushka EU-Разувий
693 25 Jun 2012 02:14 24.27M 180041.2 Северная Одиссея 3-10 EU-Борейская тундра
694 09 Nov 2011 02:14 24.68M 183025.1 Prosperity Gaming EU-Tarren Mill
695 11 Jul 2012 02:14 24.71M 183285.6 Akai Soubi US-Uther
696 14 Aug 2012 02:14 24.60M 182381.0 Royal Militia US-Bleeding Hollow
697 15 Jan 2012 02:14 24.12M 178804.4 Небесное Оружие EU-Разувий
698 27 Jun 2012 02:14 24.37M 180636.2 AlmareaWOL EU-Saurfang
699 06 Mar 2012 02:14 24.36M 180577.3 Agnostics EU-Ravencrest
700 26 Apr 2012 02:14 24.41M 180847.0 Quichons EU-Elune

Please do not close the page with the ad you want to report.

I've posted a guide on how to report misbehaving ads on the forum. Please follow the instructions and help make the internet a safer place. Thanks for you time.